createdAt,value
2017-06-15T00:02:26.890Z,99.90
2017-06-15T00:04:55.200Z,99.90
2017-06-15T00:07:23.512Z,99.90
2017-06-15T00:09:52.612Z,99.90
2017-06-15T00:12:21.705Z,99.90
2017-06-15T00:14:50.052Z,99.90
2017-06-15T00:17:18.369Z,99.90
2017-06-15T00:19:46.685Z,99.90
2017-06-15T00:22:15.038Z,99.90
2017-06-15T00:24:43.365Z,99.90
2017-06-15T00:27:11.694Z,99.90
2017-06-15T00:29:40.012Z,99.90
2017-06-15T00:32:08.322Z,99.90
2017-06-15T00:34:36.764Z,99.90
2017-06-15T00:37:05.085Z,99.90
2017-06-15T00:39:33.424Z,99.90
2017-06-15T00:42:01.752Z,99.90
2017-06-15T00:44:30.091Z,99.90
2017-06-15T00:46:58.384Z,99.90
2017-06-15T00:49:27.458Z,99.90
2017-06-15T00:51:55.772Z,99.90
2017-06-15T00:54:24.090Z,99.90
2017-06-15T00:56:52.418Z,99.90
2017-06-15T00:59:20.743Z,99.90
2017-06-15T01:01:49.055Z,99.90
2017-06-15T01:04:17.795Z,99.90
2017-06-15T01:06:46.092Z,99.90
2017-06-15T01:09:14.397Z,99.90
2017-06-15T01:11:43.498Z,99.90
2017-06-15T01:14:11.817Z,99.90
2017-06-15T01:16:40.116Z,99.90
2017-06-15T01:19:08.457Z,99.90
2017-06-15T01:21:36.784Z,99.90
2017-06-15T01:24:05.090Z,99.90
2017-06-15T01:26:33.440Z,99.90
2017-06-15T01:29:02.550Z,99.90
2017-06-15T01:31:30.857Z,99.90
2017-06-15T01:33:59.187Z,99.90
2017-06-15T01:36:27.556Z,99.90
2017-06-15T01:38:55.901Z,99.90
2017-06-15T01:41:24.637Z,99.90
2017-06-15T01:43:52.942Z,99.90
2017-06-15T01:46:21.263Z,99.90
2017-06-15T01:48:49.573Z,99.90
2017-06-15T01:51:17.909Z,99.90
2017-06-15T01:53:46.217Z,99.90
2017-06-15T01:56:14.558Z,99.90
2017-06-15T01:58:42.888Z,99.90
2017-06-15T02:01:11.212Z,99.90
2017-06-15T02:03:39.565Z,99.90
2017-06-15T02:06:07.946Z,99.90
2017-06-15T02:08:36.260Z,99.90
2017-06-15T02:11:04.588Z,99.90
2017-06-15T02:13:32.918Z,99.90
2017-06-15T02:16:01.274Z,99.90
2017-06-15T02:18:29.618Z,99.90
2017-06-15T02:20:58.005Z,99.90
2017-06-15T02:23:26.344Z,99.90
2017-06-15T02:25:54.689Z,99.90
2017-06-15T02:28:23.181Z,99.90
2017-06-15T02:30:52.276Z,99.90
2017-06-15T02:33:21.601Z,99.90
2017-06-15T02:35:49.914Z,99.90
2017-06-15T02:38:18.260Z,99.90
2017-06-15T02:40:46.587Z,99.90
2017-06-15T02:43:14.948Z,99.90
2017-06-15T02:45:43.395Z,99.90
2017-06-15T02:48:11.740Z,99.90
2017-06-15T02:50:40.821Z,99.90
2017-06-15T02:53:09.168Z,99.90
2017-06-15T02:55:37.526Z,99.90
2017-06-15T02:58:05.880Z,99.90
2017-06-15T03:00:34.225Z,99.90
2017-06-15T03:03:02.588Z,99.90
2017-06-15T03:05:30.912Z,99.90
2017-06-15T03:07:59.992Z,99.90
2017-06-15T03:10:29.136Z,99.90
2017-06-15T03:12:57.493Z,99.90
2017-06-15T03:15:25.817Z,99.90
2017-06-15T03:17:54.146Z,99.90
2017-06-15T03:20:22.578Z,99.90
2017-06-15T03:22:50.901Z,99.90
2017-06-15T03:25:19.254Z,99.90
2017-06-15T03:27:47.573Z,99.90
2017-06-15T03:30:16.093Z,99.90
2017-06-15T03:32:44.410Z,99.90
2017-06-15T03:35:12.723Z,99.90
2017-06-15T03:37:41.895Z,99.90
2017-06-15T03:40:10.241Z,99.90
2017-06-15T03:42:39.325Z,99.90
2017-06-15T03:45:08.445Z,99.90
2017-06-15T03:47:36.773Z,99.90
2017-06-15T03:50:05.133Z,99.90
2017-06-15T03:52:33.462Z,99.90
2017-06-15T03:55:02.649Z,99.90
2017-06-15T03:57:31.772Z,99.90
2017-06-15T04:00:00.105Z,99.90
2017-06-15T04:02:28.441Z,99.90
2017-06-15T04:04:56.755Z,99.90
2017-06-15T04:07:25.182Z,99.90
2017-06-15T04:09:53.509Z,99.90
2017-06-15T04:12:21.825Z,99.90
2017-06-15T04:14:50.196Z,99.90
2017-06-15T04:17:19.293Z,99.90
2017-06-15T04:19:47.624Z,99.90
2017-06-15T04:22:16.031Z,99.90
2017-06-15T04:24:54.634Z,99.90
2017-06-15T04:27:22.946Z,99.90
2017-06-15T04:29:51.277Z,99.90
2017-06-15T04:32:19.632Z,99.90
2017-06-15T04:34:47.997Z,99.90
2017-06-15T04:37:16.325Z,99.90
2017-06-15T04:39:45.028Z,99.90
2017-06-15T04:42:13.374Z,99.90
2017-06-15T04:44:41.707Z,99.90
2017-06-15T04:47:10.036Z,99.90
2017-06-15T04:49:38.545Z,99.90
2017-06-15T04:52:07.688Z,99.90
2017-06-15T04:54:36.030Z,99.90
2017-06-15T04:57:04.383Z,99.90
2017-06-15T04:59:33.482Z,99.90
2017-06-15T05:02:01.833Z,99.90
2017-06-15T05:04:30.144Z,99.90
2017-06-15T05:06:59.247Z,99.90
2017-06-15T05:09:27.572Z,99.90
2017-06-15T05:11:55.929Z,99.90
2017-06-15T05:14:24.224Z,99.90
2017-06-15T05:16:52.556Z,99.90
2017-06-15T05:19:20.888Z,99.90
2017-06-15T05:21:49.254Z,99.90
2017-06-15T05:24:17.600Z,99.90
2017-06-15T05:26:45.914Z,99.90
2017-06-15T05:29:14.277Z,99.90
2017-06-15T05:31:42.609Z,99.90
2017-06-15T05:34:10.926Z,99.90
2017-06-15T05:36:39.275Z,99.90
2017-06-15T05:39:07.596Z,99.90
2017-06-15T05:41:35.945Z,99.90
2017-06-15T05:44:04.293Z,99.90
2017-06-15T05:46:32.638Z,99.90
2017-06-15T05:49:00.953Z,99.90
2017-06-15T05:51:29.433Z,99.90
2017-06-15T05:53:57.763Z,99.90
2017-06-15T05:56:26.117Z,99.90
2017-06-15T05:58:54.468Z,99.90
2017-06-15T06:01:22.794Z,99.90
2017-06-15T06:03:51.252Z,99.90
2017-06-15T06:06:19.566Z,99.90
2017-06-15T06:08:48.069Z,99.90
2017-06-15T06:11:16.516Z,99.90
2017-06-15T06:13:44.851Z,99.90
2017-06-15T06:16:13.178Z,99.90
2017-06-15T06:18:42.206Z,99.90
2017-06-15T06:21:10.527Z,99.90
2017-06-15T06:23:39.345Z,99.90
2017-06-15T06:26:07.654Z,99.90
2017-06-15T06:28:35.982Z,99.90
2017-06-15T06:31:04.369Z,99.90
2017-06-15T06:33:32.688Z,99.90
2017-06-15T06:36:01.022Z,99.90
2017-06-15T06:38:29.359Z,99.90
2017-06-15T06:40:58.096Z,99.90
2017-06-15T06:43:27.310Z,99.90
2017-06-15T06:45:55.609Z,99.90
2017-06-15T06:48:24.033Z,99.90
2017-06-15T06:50:52.372Z,99.90
2017-06-15T06:53:20.716Z,99.90
2017-06-15T06:55:49.073Z,99.90
2017-06-15T06:58:18.541Z,99.90
2017-06-15T07:00:46.897Z,99.90
2017-06-15T07:03:15.321Z,99.90
2017-06-15T07:05:43.757Z,99.90
2017-06-15T07:08:12.064Z,99.90
2017-06-15T07:10:40.404Z,99.90
2017-06-15T07:13:08.792Z,99.90
2017-06-15T07:15:37.136Z,99.90
2017-06-15T07:18:05.479Z,99.90
2017-06-15T07:20:34.403Z,99.90
2017-06-15T07:23:02.776Z,99.90
2017-06-15T07:25:31.944Z,99.90
2017-06-15T07:28:00.250Z,99.90
2017-06-15T07:30:29.369Z,99.90
2017-06-15T07:32:57.692Z,99.90
2017-06-15T07:35:26.016Z,99.90
2017-06-15T07:37:54.355Z,99.90
2017-06-15T07:40:23.582Z,99.90
2017-06-15T07:42:52.902Z,99.90
2017-06-15T07:45:21.377Z,99.90
2017-06-15T07:47:49.678Z,99.90
2017-06-15T07:50:17.986Z,99.90
2017-06-15T07:52:46.340Z,99.90
2017-06-15T07:55:15.349Z,99.90
2017-06-15T07:57:43.654Z,99.90
2017-06-15T08:00:12.773Z,99.90
2017-06-15T08:02:41.132Z,99.90
2017-06-15T08:05:09.438Z,99.90
2017-06-15T08:07:37.844Z,99.90
2017-06-15T08:10:07.388Z,99.90
2017-06-15T08:12:35.721Z,99.90
2017-06-15T08:15:04.066Z,99.90
2017-06-15T08:17:32.412Z,99.90
2017-06-15T08:20:01.552Z,99.90
2017-06-15T08:22:29.962Z,99.90
2017-06-15T08:24:58.293Z,99.90
2017-06-15T08:27:26.600Z,99.90
2017-06-15T08:29:54.921Z,99.90
2017-06-15T08:32:23.243Z,99.90
2017-06-15T08:34:51.584Z,99.90
2017-06-15T08:37:19.888Z,99.90
2017-06-15T08:39:48.241Z,99.90
2017-06-15T08:42:16.670Z,99.90
2017-06-15T08:45:04.718Z,99.90
2017-06-15T08:47:33.531Z,99.80
2017-06-15T08:50:02.667Z,99.90
2017-06-15T08:52:31.055Z,99.80
2017-06-15T08:54:59.406Z,99.90
2017-06-15T08:57:27.793Z,99.90
2017-06-15T08:59:56.196Z,99.90
2017-06-15T09:02:24.516Z,99.80
2017-06-15T09:04:52.836Z,99.90
2017-06-15T09:07:21.144Z,99.20
2017-06-15T09:09:49.549Z,98.40
2017-06-15T09:12:17.860Z,98.80
2017-06-15T09:14:46.208Z,99.80
2017-06-15T09:17:14.643Z,99.20
2017-06-15T09:19:43.886Z,98.60
2017-06-15T09:22:12.259Z,98.50
2017-06-15T09:24:40.664Z,99.40
2017-06-15T09:27:09.036Z,99.50
2017-06-15T09:29:37.368Z,99.80
2017-06-15T09:32:05.712Z,99.90
2017-06-15T09:34:34.017Z,98.90
2017-06-15T09:37:02.344Z,97.20
2017-06-15T09:39:30.708Z,98.50
2017-06-15T09:41:59.028Z,97.70
2017-06-15T09:44:27.386Z,97.50
2017-06-15T09:46:56.490Z,96.60
2017-06-15T09:49:24.876Z,96.10
2017-06-15T09:51:53.264Z,96.20
2017-06-15T09:54:27.389Z,96.40
2017-06-15T09:56:56.367Z,96.40
2017-06-15T09:59:25.505Z,95.40
2017-06-15T10:01:53.817Z,96.00
2017-06-15T10:04:22.977Z,96.30
2017-06-15T10:06:52.111Z,95.00
2017-06-15T10:09:20.422Z,95.00
2017-06-15T10:11:48.825Z,93.70
2017-06-15T10:14:17.172Z,93.30
2017-06-15T10:16:45.497Z,93.30
2017-06-15T10:19:13.908Z,94.40
2017-06-15T10:21:42.281Z,92.90
2017-06-15T10:24:10.622Z,90.90
2017-06-15T10:26:39.694Z,90.90
2017-06-15T10:29:08.017Z,90.80
2017-06-15T10:31:36.378Z,90.00
2017-06-15T10:34:04.713Z,88.80
2017-06-15T10:36:33.070Z,89.40
2017-06-15T10:39:01.380Z,90.30
2017-06-15T10:41:29.717Z,87.40
2017-06-15T10:43:58.035Z,87.10
2017-06-15T10:46:26.365Z,86.20
2017-06-15T10:48:54.668Z,86.50
2017-06-15T10:51:22.994Z,87.90
2017-06-15T10:53:51.297Z,88.80
2017-06-15T10:56:19.600Z,87.80
2017-06-15T10:58:47.937Z,87.60
2017-06-15T11:01:16.239Z,87.60
2017-06-15T11:03:44.598Z,88.60
2017-06-15T11:06:12.940Z,83.60
2017-06-15T11:08:42.029Z,85.40
2017-06-15T11:11:11.115Z,83.90
2017-06-15T11:13:39.458Z,83.70
2017-06-15T11:16:07.795Z,83.60
2017-06-15T11:18:36.112Z,81.10
2017-06-15T11:21:04.509Z,82.20
2017-06-15T11:23:32.852Z,84.10
2017-06-15T11:26:01.161Z,87.60
2017-06-15T11:28:29.533Z,84.30
2017-06-15T11:30:57.864Z,81.40
2017-06-15T11:33:26.184Z,82.20
2017-06-15T11:35:54.534Z,82.30
2017-06-15T11:38:22.885Z,79.00
2017-06-15T11:40:51.264Z,80.40
2017-06-15T11:43:19.631Z,81.60
2017-06-15T11:45:47.986Z,81.80
2017-06-15T11:48:16.330Z,79.70
2017-06-15T11:50:44.659Z,78.00
2017-06-15T11:53:13.774Z,81.60
2017-06-15T11:55:42.105Z,75.90
2017-06-15T11:58:10.421Z,73.80
2017-06-15T12:00:38.740Z,74.70
2017-06-15T12:03:07.057Z,72.50
2017-06-15T12:05:36.196Z,73.20
2017-06-15T12:08:04.525Z,73.10
2017-06-15T12:10:32.971Z,73.60
2017-06-15T12:13:01.716Z,72.90
2017-06-15T12:15:30.048Z,72.50
2017-06-15T12:17:58.405Z,72.50
2017-06-15T12:20:27.555Z,73.10
2017-06-15T12:22:56.633Z,73.70
2017-06-15T12:25:25.756Z,73.80
2017-06-15T12:27:54.154Z,74.00
2017-06-15T12:30:22.509Z,74.50
2017-06-15T12:32:50.883Z,72.70
2017-06-15T12:35:19.365Z,74.80
2017-06-15T12:37:48.873Z,73.80
2017-06-15T12:40:17.192Z,74.40
2017-06-15T12:42:45.631Z,74.40
2017-06-15T12:45:14.029Z,73.60
2017-06-15T12:47:42.429Z,74.30
2017-06-15T12:50:12.081Z,72.60
2017-06-15T12:52:40.741Z,74.40
2017-06-15T12:55:09.069Z,71.80
2017-06-15T12:57:38.169Z,71.30
2017-06-15T13:00:06.537Z,75.50
2017-06-15T13:02:35.624Z,75.70
2017-06-15T13:05:04.033Z,76.00
2017-06-15T13:07:32.406Z,74.60
2017-06-15T13:10:00.756Z,76.60
2017-06-15T13:12:29.062Z,76.10
2017-06-15T13:14:57.492Z,76.30
2017-06-15T13:17:25.922Z,77.10
2017-06-15T13:19:54.397Z,76.60
2017-06-15T13:22:22.761Z,78.20
2017-06-15T13:24:51.119Z,79.10
2017-06-15T13:27:19.429Z,78.80
2017-06-15T13:29:47.773Z,79.60
2017-06-15T13:32:16.134Z,80.60
2017-06-15T13:34:44.474Z,81.10
2017-06-15T13:37:12.798Z,81.10
2017-06-15T13:39:41.924Z,82.10
2017-06-15T13:42:10.245Z,82.10
2017-06-15T13:44:39.366Z,84.60
2017-06-15T13:47:07.787Z,83.80
2017-06-15T13:49:36.089Z,82.20
2017-06-15T13:52:04.424Z,82.20
2017-06-15T13:54:32.735Z,83.20
2017-06-15T13:57:01.090Z,81.70
2017-06-15T13:59:29.399Z,82.70
2017-06-15T14:01:57.704Z,82.30
2017-06-15T14:04:26.055Z,82.60
2017-06-15T14:06:54.356Z,83.60
2017-06-15T14:09:22.731Z,84.00
2017-06-15T14:11:51.832Z,85.00
2017-06-15T14:14:20.184Z,85.50
2017-06-15T14:16:49.269Z,85.50
2017-06-15T14:19:17.597Z,86.30
2017-06-15T14:21:45.944Z,88.60
2017-06-15T14:24:14.265Z,89.20
2017-06-15T14:26:42.608Z,88.00
2017-06-15T14:29:10.946Z,87.20
2017-06-15T14:31:39.268Z,87.30
2017-06-15T14:34:07.573Z,87.80
2017-06-15T14:36:35.906Z,86.70
2017-06-15T14:39:04.988Z,89.00
2017-06-15T14:41:33.313Z,89.10
2017-06-15T14:44:01.648Z,88.00
2017-06-15T14:46:29.988Z,90.20
2017-06-15T14:48:58.287Z,89.60
2017-06-15T14:51:26.671Z,89.60
2017-06-15T14:53:55.006Z,89.20
2017-06-15T14:56:23.332Z,89.00
2017-06-15T14:58:51.648Z,88.80
2017-06-15T15:01:20.017Z,89.40
2017-06-15T15:03:48.380Z,90.20
2017-06-15T15:06:16.680Z,90.10
2017-06-15T15:08:56.905Z,87.90
2017-06-15T15:11:25.228Z,88.00
2017-06-15T15:13:53.679Z,89.00
2017-06-15T15:16:22.037Z,87.70
2017-06-15T15:18:50.339Z,89.70
2017-06-15T15:21:18.694Z,88.00
2017-06-15T15:23:47.046Z,86.20
2017-06-15T15:26:15.385Z,85.10
2017-06-15T15:28:43.698Z,87.00
2017-06-15T15:31:12.072Z,87.30
2017-06-15T15:33:40.485Z,88.90
2017-06-15T15:36:08.818Z,88.70
2017-06-15T15:38:38.113Z,90.40
2017-06-15T15:41:06.495Z,90.80
2017-06-15T15:43:34.837Z,92.30
2017-06-15T15:46:03.251Z,92.40
2017-06-15T15:48:31.643Z,92.50
2017-06-15T15:51:02.801Z,93.20
2017-06-15T15:53:31.258Z,93.50
2017-06-15T15:56:01.802Z,93.70
2017-06-15T15:58:31.872Z,94.50
2017-06-15T16:01:01.605Z,94.20
2017-06-15T16:03:30.418Z,94.80
2017-06-15T16:05:59.338Z,95.10
2017-06-15T16:08:28.533Z,95.80
2017-06-15T16:10:58.227Z,96.10
2017-06-15T16:13:28.288Z,96.00
2017-06-15T16:15:57.554Z,96.60
2017-06-15T16:18:26.648Z,97.60
2017-06-15T16:20:55.232Z,97.70
2017-06-15T16:23:24.258Z,96.90
2017-06-15T16:25:52.950Z,97.10
2017-06-15T16:28:22.369Z,97.50
2017-06-15T16:30:51.573Z,97.70
2017-06-15T16:33:20.757Z,97.00
2017-06-15T16:35:49.126Z,97.30
2017-06-15T16:38:17.509Z,97.50
2017-06-15T16:40:47.113Z,97.60
2017-06-15T16:43:15.944Z,97.80
2017-06-15T16:45:45.117Z,98.40
2017-06-15T16:48:13.891Z,98.30
2017-06-15T16:50:42.251Z,98.50
2017-06-15T16:53:10.673Z,97.80
2017-06-15T16:55:39.088Z,97.60
2017-06-15T16:58:07.394Z,97.70
2017-06-15T17:00:35.738Z,98.00
2017-06-15T17:03:04.057Z,98.20
2017-06-15T17:05:32.458Z,98.10
2017-06-15T17:08:01.326Z,97.10
2017-06-15T17:10:30.541Z,95.80
2017-06-15T17:12:58.884Z,95.80
2017-06-15T17:15:27.366Z,95.80
2017-06-15T17:17:55.808Z,95.60
2017-06-15T17:20:24.244Z,95.60
2017-06-15T17:22:52.728Z,95.50
2017-06-15T17:25:21.137Z,95.00
2017-06-15T17:27:49.476Z,94.30
2017-06-15T17:30:18.477Z,94.80
2017-06-15T17:32:46.817Z,94.50
2017-06-15T17:35:15.161Z,93.40
2017-06-15T17:37:43.517Z,93.00
2017-06-15T17:40:12.617Z,92.30
2017-06-15T17:42:41.009Z,92.20
2017-06-15T17:45:09.340Z,91.50
2017-06-15T17:47:37.719Z,92.00
2017-06-15T17:50:06.945Z,92.80
2017-06-15T17:52:35.308Z,93.60
2017-06-15T17:55:03.709Z,94.00
2017-06-15T17:57:32.093Z,93.30
2017-06-15T18:00:00.456Z,93.40
2017-06-15T18:02:29.669Z,93.80
2017-06-15T18:04:58.052Z,92.10
2017-06-15T18:07:26.407Z,93.50
2017-06-15T18:09:55.615Z,92.30
2017-06-15T18:12:25.628Z,92.30
2017-06-15T18:14:54.002Z,92.30
2017-06-15T18:17:22.405Z,92.40
2017-06-15T18:19:50.792Z,92.90
2017-06-15T18:22:19.191Z,94.10
2017-06-15T18:24:47.551Z,94.50
2017-06-15T18:27:16.707Z,94.80
2017-06-15T18:29:45.126Z,94.90
2017-06-15T18:32:13.509Z,95.10
2017-06-15T18:34:41.852Z,95.30
2017-06-15T18:37:10.942Z,94.90
2017-06-15T18:39:39.353Z,94.50
2017-06-15T18:42:07.692Z,95.00
2017-06-15T18:44:36.033Z,95.30
2017-06-15T18:47:04.765Z,94.70
2017-06-15T18:49:33.148Z,94.50
2017-06-15T18:52:02.436Z,94.90
2017-06-15T18:54:30.780Z,95.10
2017-06-15T18:56:59.493Z,95.50
2017-06-15T18:59:27.930Z,95.50
2017-06-15T19:01:56.345Z,95.70
2017-06-15T19:04:24.736Z,95.90
2017-06-15T19:06:53.161Z,96.20
2017-06-15T19:09:21.534Z,96.60
2017-06-15T19:11:50.904Z,96.90
2017-06-15T19:14:19.294Z,97.20
2017-06-15T19:16:47.655Z,97.20
2017-06-15T19:19:15.985Z,97.60
2017-06-15T19:21:44.423Z,97.30
2017-06-15T19:24:14.180Z,97.80
2017-06-15T19:26:42.743Z,97.50
2017-06-15T19:29:11.118Z,97.80
2017-06-15T19:31:39.861Z,97.60
2017-06-15T19:34:08.195Z,98.10
2017-06-15T19:36:36.549Z,98.00
2017-06-15T19:39:04.873Z,98.60
2017-06-15T19:41:33.190Z,98.70
2017-06-15T19:44:01.547Z,98.90
2017-06-15T19:46:29.898Z,99.30
2017-06-15T19:48:58.279Z,99.50
2017-06-15T19:51:26.610Z,99.70
2017-06-15T19:53:54.959Z,99.90
2017-06-15T19:56:23.274Z,99.90
2017-06-15T19:58:51.654Z,99.90
2017-06-15T20:01:20.033Z,99.90
2017-06-15T20:03:48.386Z,99.90
2017-06-15T20:06:16.726Z,99.90
2017-06-15T20:08:45.135Z,99.90
2017-06-15T20:11:14.240Z,99.90
2017-06-15T20:13:43.079Z,99.90
2017-06-15T20:16:11.382Z,99.90
2017-06-15T20:18:39.745Z,99.90
2017-06-15T20:21:08.078Z,99.90
2017-06-15T20:23:36.393Z,99.90
2017-06-15T20:26:04.761Z,99.90
2017-06-15T20:28:33.072Z,99.90
2017-06-15T20:31:02.184Z,99.90
2017-06-15T20:33:31.283Z,99.90
2017-06-15T20:35:59.622Z,99.90
2017-06-15T20:38:27.952Z,99.90
2017-06-15T20:40:56.286Z,99.90
2017-06-15T20:43:24.598Z,99.90
2017-06-15T20:45:52.929Z,99.90
2017-06-15T20:48:21.242Z,99.90
2017-06-15T20:50:49.557Z,99.90
2017-06-15T20:53:17.894Z,99.90
2017-06-15T20:55:46.214Z,99.90
2017-06-15T20:58:14.525Z,99.90
2017-06-15T21:00:43.265Z,99.90
2017-06-15T21:03:11.617Z,99.90
2017-06-15T21:05:39.993Z,99.90
2017-06-15T21:08:09.074Z,99.90
2017-06-15T21:10:38.186Z,99.90
2017-06-15T21:13:06.576Z,99.90
2017-06-15T21:15:34.909Z,99.90
2017-06-15T21:18:13.546Z,99.90
2017-06-15T21:20:41.874Z,99.90
2017-06-15T21:23:10.180Z,99.90
2017-06-15T21:25:39.169Z,99.90
2017-06-15T21:28:07.524Z,99.90
2017-06-15T21:30:35.854Z,99.90
2017-06-15T21:33:04.557Z,99.90
2017-06-15T21:35:32.856Z,99.90
2017-06-15T21:38:01.189Z,99.90
2017-06-15T21:40:29.537Z,99.90
2017-06-15T21:42:57.840Z,99.90
2017-06-15T21:45:26.197Z,99.90
2017-06-15T21:47:54.534Z,99.90
2017-06-15T21:50:22.882Z,99.90
2017-06-15T21:52:51.198Z,99.90
2017-06-15T21:55:19.574Z,99.90
2017-06-15T21:57:47.917Z,99.90
2017-06-15T22:00:16.228Z,99.90
2017-06-15T22:02:44.572Z,99.90
2017-06-15T22:05:12.877Z,99.90
2017-06-15T22:07:41.191Z,99.90
2017-06-15T22:10:09.542Z,99.90
2017-06-15T22:12:37.849Z,99.90
2017-06-15T22:15:06.573Z,99.90
2017-06-15T22:17:35.657Z,99.90
2017-06-15T22:20:04.386Z,99.90
2017-06-15T22:22:32.703Z,99.90
2017-06-15T22:25:02.121Z,99.90
2017-06-15T22:27:30.429Z,99.90
2017-06-15T22:29:58.755Z,99.90
2017-06-15T22:32:27.090Z,99.90
2017-06-15T22:34:55.397Z,99.90
2017-06-15T22:37:24.368Z,99.90
2017-06-15T22:39:52.708Z,99.90
2017-06-15T22:42:21.037Z,99.90
2017-06-15T22:44:49.344Z,99.90
2017-06-15T22:47:17.673Z,99.90
2017-06-15T22:49:45.976Z,99.90
2017-06-15T22:52:14.326Z,99.90
2017-06-15T22:54:42.626Z,99.90
2017-06-15T22:57:11.748Z,99.90
2017-06-15T22:59:40.074Z,99.90
2017-06-15T23:02:08.759Z,99.90
2017-06-15T23:04:39.806Z,99.90
2017-06-15T23:07:08.130Z,99.90
2017-06-15T23:09:36.485Z,99.90
2017-06-15T23:12:05.557Z,99.90
2017-06-15T23:14:33.864Z,99.90
2017-06-15T23:17:02.221Z,99.90
2017-06-15T23:19:30.533Z,99.90
2017-06-15T23:21:58.921Z,99.90
2017-06-15T23:24:27.225Z,99.90
2017-06-15T23:26:55.556Z,99.90
2017-06-15T23:29:23.863Z,99.90
2017-06-15T23:31:52.201Z,99.90
2017-06-15T23:34:21.280Z,99.90
2017-06-15T23:36:50.391Z,99.90
2017-06-15T23:39:18.677Z,99.90
2017-06-15T23:41:47.011Z,99.90
2017-06-15T23:44:15.349Z,99.90
2017-06-15T23:46:43.664Z,99.90
2017-06-15T23:49:11.973Z,99.90
2017-06-15T23:51:41.086Z,99.90
2017-06-15T23:54:09.509Z,99.90
2017-06-15T23:56:37.820Z,99.90
2017-06-15T23:59:06.929Z,99.90
